sensor_id;sensor_type;location;lat;lon;timestamp;P1;durP1;ratioP1;P2;durP2;ratioP2
65658;SDS011;60181;53.258;6.932;2023-07-28T00:01:25;18.50;;;7.30;;
65658;SDS011;60181;53.258;6.932;2023-07-28T00:05:35;17.50;;;6.80;;
65658;SDS011;60181;53.258;6.932;2023-07-28T00:09:45;17.50;;;6.80;;
65658;SDS011;60181;53.258;6.932;2023-07-28T00:13:55;14.70;;;6.80;;
65658;SDS011;60181;53.258;6.932;2023-07-28T00:18:05;14.70;;;6.80;;
65658;SDS011;60181;53.258;6.932;2023-07-28T00:22:15;14.70;;;6.80;;
65658;SDS011;60181;53.258;6.932;2023-07-28T00:26:25;16.60;;;7.00;;
65658;SDS011;60181;53.258;6.932;2023-07-28T00:30:35;16.60;;;7.00;;
65658;SDS011;60181;53.258;6.932;2023-07-28T00:34:45;18.70;;;6.80;;
65658;SDS011;60181;53.258;6.932;2023-07-28T00:38:54;18.70;;;6.80;;
65658;SDS011;60181;53.258;6.932;2023-07-28T00:43:05;18.70;;;6.80;;
65658;SDS011;60181;53.258;6.932;2023-07-28T00:47:15;18.10;;;7.10;;
65658;SDS011;60181;53.258;6.932;2023-07-28T00:51:24;18.10;;;7.10;;
65658;SDS011;60181;53.258;6.932;2023-07-28T00:55:34;17.90;;;7.20;;
65658;SDS011;60181;53.258;6.932;2023-07-28T00:59:45;17.90;;;7.20;;
65658;SDS011;60181;53.258;6.932;2023-07-28T01:03:54;21.80;;;7.90;;
65658;SDS011;60181;53.258;6.932;2023-07-28T01:08:11;21.80;;;7.90;;
65658;SDS011;60181;53.258;6.932;2023-07-28T01:12:14;21.80;;;7.90;;
65658;SDS011;60181;53.258;6.932;2023-07-28T01:16:24;22.80;;;8.10;;
65658;SDS011;60181;53.258;6.932;2023-07-28T01:20:34;22.80;;;8.10;;
65658;SDS011;60181;53.258;6.932;2023-07-28T01:28:54;26.10;;;8.10;;
65658;SDS011;60181;53.258;6.932;2023-07-28T01:33:07;26.10;;;8.10;;
65658;SDS011;60181;53.258;6.932;2023-07-28T01:37:14;24.10;;;8.20;;
65658;SDS011;60181;53.258;6.932;2023-07-28T01:41:24;24.10;;;8.20;;
65658;SDS011;60181;53.258;6.932;2023-07-28T01:45:34;20.60;;;8.30;;
65658;SDS011;60181;53.258;6.932;2023-07-28T01:49:44;20.60;;;8.30;;
65658;SDS011;60181;53.258;6.932;2023-07-28T01:58:04;22.20;;;8.10;;
65658;SDS011;60181;53.258;6.932;2023-07-28T02:02:14;22.20;;;8.10;;
65658;SDS011;60181;53.258;6.932;2023-07-28T02:06:24;22.30;;;8.10;;
65658;SDS011;60181;53.258;6.932;2023-07-28T02:10:34;22.30;;;8.10;;
65658;SDS011;60181;53.258;6.932;2023-07-28T02:14:44;28.70;;;8.30;;
65658;SDS011;60181;53.258;6.932;2023-07-28T02:18:54;28.70;;;8.30;;
65658;SDS011;60181;53.258;6.932;2023-07-28T02:23:04;28.70;;;8.30;;
65658;SDS011;60181;53.258;6.932;2023-07-28T02:27:14;20.00;;;8.00;;
65658;SDS011;60181;53.258;6.932;2023-07-28T02:31:24;20.00;;;8.00;;
65658;SDS011;60181;53.258;6.932;2023-07-28T02:35:34;21.00;;;7.90;;
65658;SDS011;60181;53.258;6.932;2023-07-28T02:39:44;21.00;;;7.90;;
65658;SDS011;60181;53.258;6.932;2023-07-28T02:43:54;23.10;;;8.80;;
65658;SDS011;60181;53.258;6.932;2023-07-28T02:48:05;23.10;;;8.80;;
65658;SDS011;60181;53.258;6.932;2023-07-28T02:52:14;23.10;;;8.80;;
65658;SDS011;60181;53.258;6.932;2023-07-28T02:56:24;25.10;;;8.50;;
65658;SDS011;60181;53.258;6.932;2023-07-28T03:00:37;25.10;;;8.50;;
65658;SDS011;60181;53.258;6.932;2023-07-28T03:04:44;21.00;;;8.40;;
65658;SDS011;60181;53.258;6.932;2023-07-28T03:08:54;21.00;;;8.40;;
65658;SDS011;60181;53.258;6.932;2023-07-28T03:13:04;21.00;;;8.40;;
65658;SDS011;60181;53.258;6.932;2023-07-28T03:17:14;19.80;;;7.80;;
65658;SDS011;60181;53.258;6.932;2023-07-28T03:21:24;19.80;;;7.80;;
65658;SDS011;60181;53.258;6.932;2023-07-28T03:25:34;19.30;;;7.70;;
65658;SDS011;60181;53.258;6.932;2023-07-28T03:29:44;19.30;;;7.70;;
65658;SDS011;60181;53.258;6.932;2023-07-28T03:33:54;17.80;;;7.40;;
65658;SDS011;60181;53.258;6.932;2023-07-28T03:38:04;17.80;;;7.40;;
65658;SDS011;60181;53.258;6.932;2023-07-28T03:42:14;17.80;;;7.40;;
65658;SDS011;60181;53.258;6.932;2023-07-28T03:46:24;19.20;;;7.70;;
65658;SDS011;60181;53.258;6.932;2023-07-28T03:50:34;19.20;;;7.70;;
65658;SDS011;60181;53.258;6.932;2023-07-28T03:54:44;17.60;;;7.40;;
65658;SDS011;60181;53.258;6.932;2023-07-28T03:58:54;17.60;;;7.40;;
65658;SDS011;60181;53.258;6.932;2023-07-28T04:03:04;17.60;;;7.40;;
65658;SDS011;60181;53.258;6.932;2023-07-28T04:07:14;19.70;;;8.40;;
65658;SDS011;60181;53.258;6.932;2023-07-28T04:11:24;19.70;;;8.40;;
65658;SDS011;60181;53.258;6.932;2023-07-28T04:15:34;24.10;;;8.80;;
65658;SDS011;60181;53.258;6.932;2023-07-28T04:19:44;24.10;;;8.80;;
65658;SDS011;60181;53.258;6.932;2023-07-28T04:23:54;21.70;;;8.70;;
65658;SDS011;60181;53.258;6.932;2023-07-28T04:28:04;21.70;;;8.70;;
65658;SDS011;60181;53.258;6.932;2023-07-28T04:32:14;21.70;;;8.70;;
65658;SDS011;60181;53.258;6.932;2023-07-28T04:36:24;21.20;;;8.50;;
65658;SDS011;60181;53.258;6.932;2023-07-28T04:40:34;21.20;;;8.50;;
65658;SDS011;60181;53.258;6.932;2023-07-28T04:44:44;23.90;;;8.30;;
65658;SDS011;60181;53.258;6.932;2023-07-28T04:48:54;23.90;;;8.30;;
65658;SDS011;60181;53.258;6.932;2023-07-28T04:53:04;23.90;;;8.30;;
65658;SDS011;60181;53.258;6.932;2023-07-28T04:57:14;22.20;;;8.70;;
65658;SDS011;60181;53.258;6.932;2023-07-28T05:01:24;22.20;;;8.70;;
65658;SDS011;60181;53.258;6.932;2023-07-28T05:05:34;18.10;;;7.50;;
65658;SDS011;60181;53.258;6.932;2023-07-28T05:09:44;18.10;;;7.50;;
65658;SDS011;60181;53.258;6.932;2023-07-28T05:13:54;23.80;;;7.50;;
65658;SDS011;60181;53.258;6.932;2023-07-28T05:18:04;23.80;;;7.50;;
65658;SDS011;60181;53.258;6.932;2023-07-28T05:22:14;23.80;;;7.50;;
65658;SDS011;60181;53.258;6.932;2023-07-28T05:26:24;22.20;;;7.30;;
65658;SDS011;60181;53.258;6.932;2023-07-28T05:30:34;22.20;;;7.30;;
65658;SDS011;60181;53.258;6.932;2023-07-28T05:34:44;20.00;;;7.30;;
65658;SDS011;60181;53.258;6.932;2023-07-28T05:38:54;20.00;;;7.30;;
65658;SDS011;60181;53.258;6.932;2023-07-28T05:43:04;20.00;;;7.30;;
65658;SDS011;60181;53.258;6.932;2023-07-28T05:47:14;19.50;;;6.90;;
65658;SDS011;60181;53.258;6.932;2023-07-28T05:51:24;19.50;;;6.90;;
65658;SDS011;60181;53.258;6.932;2023-07-28T05:55:34;20.20;;;6.70;;
65658;SDS011;60181;53.258;6.932;2023-07-28T05:59:44;20.20;;;6.70;;
65658;SDS011;60181;53.258;6.932;2023-07-28T06:03:54;16.90;;;6.50;;
65658;SDS011;60181;53.258;6.932;2023-07-28T06:08:04;16.90;;;6.50;;
65658;SDS011;60181;53.258;6.932;2023-07-28T06:12:14;16.90;;;6.50;;
65658;SDS011;60181;53.258;6.932;2023-07-28T06:16:24;15.40;;;6.40;;
65658;SDS011;60181;53.258;6.932;2023-07-28T06:20:34;15.40;;;6.40;;
65658;SDS011;60181;53.258;6.932;2023-07-28T06:24:44;11.90;;;5.50;;
65658;SDS011;60181;53.258;6.932;2023-07-28T06:28:54;11.90;;;5.50;;
65658;SDS011;60181;53.258;6.932;2023-07-28T06:33:05;11.90;;;5.50;;
65658;SDS011;60181;53.258;6.932;2023-07-28T06:37:14;12.30;;;5.40;;
65658;SDS011;60181;53.258;6.932;2023-07-28T06:41:24;12.30;;;5.40;;
65658;SDS011;60181;53.258;6.932;2023-07-28T06:45:34;12.20;;;5.60;;
65658;SDS011;60181;53.258;6.932;2023-07-28T06:49:44;12.20;;;5.60;;
65658;SDS011;60181;53.258;6.932;2023-07-28T06:53:54;12.20;;;5.40;;
65658;SDS011;60181;53.258;6.932;2023-07-28T06:58:05;12.20;;;5.40;;
65658;SDS011;60181;53.258;6.932;2023-07-28T07:02:14;12.20;;;5.40;;
65658;SDS011;60181;53.258;6.932;2023-07-28T07:06:24;12.60;;;5.50;;
65658;SDS011;60181;53.258;6.932;2023-07-28T07:10:34;12.60;;;5.50;;
65658;SDS011;60181;53.258;6.932;2023-07-28T07:14:44;10.00;;;5.60;;
65658;SDS011;60181;53.258;6.932;2023-07-28T07:18:54;10.00;;;5.60;;
65658;SDS011;60181;53.258;6.932;2023-07-28T07:23:04;10.00;;;5.60;;
65658;SDS011;60181;53.258;6.932;2023-07-28T07:27:14;13.00;;;5.50;;
65658;SDS011;60181;53.258;6.932;2023-07-28T07:31:24;13.00;;;5.50;;
65658;SDS011;60181;53.258;6.932;2023-07-28T07:35:37;11.00;;;5.30;;
65658;SDS011;60181;53.258;6.932;2023-07-28T07:39:44;11.00;;;5.30;;
65658;SDS011;60181;53.258;6.932;2023-07-28T07:43:54;12.00;;;5.60;;
65658;SDS011;60181;53.258;6.932;2023-07-28T07:48:04;12.00;;;5.60;;
65658;SDS011;60181;53.258;6.932;2023-07-28T07:52:14;12.00;;;5.60;;
65658;SDS011;60181;53.258;6.932;2023-07-28T07:56:24;10.00;;;5.60;;
65658;SDS011;60181;53.258;6.932;2023-07-28T08:00:35;10.00;;;5.60;;
65658;SDS011;60181;53.258;6.932;2023-07-28T08:04:44;9.00;;;5.10;;
65658;SDS011;60181;53.258;6.932;2023-07-28T08:08:54;9.00;;;5.10;;
65658;SDS011;60181;53.258;6.932;2023-07-28T08:13:04;9.00;;;5.10;;
65658;SDS011;60181;53.258;6.932;2023-07-28T08:17:14;10.90;;;5.40;;
65658;SDS011;60181;53.258;6.932;2023-07-28T08:21:24;10.90;;;5.40;;
65658;SDS011;60181;53.258;6.932;2023-07-28T08:25:34;8.70;;;5.40;;
65658;SDS011;60181;53.258;6.932;2023-07-28T08:29:44;8.70;;;5.40;;
65658;SDS011;60181;53.258;6.932;2023-07-28T08:33:54;8.70;;;5.40;;
65658;SDS011;60181;53.258;6.932;2023-07-28T08:38:04;8.70;;;5.40;;
65658;SDS011;60181;53.258;6.932;2023-07-28T08:42:14;8.70;;;5.40;;
65658;SDS011;60181;53.258;6.932;2023-07-28T08:46:24;16.40;;;5.30;;
65658;SDS011;60181;53.258;6.932;2023-07-28T08:50:34;16.40;;;5.30;;
65658;SDS011;60181;53.258;6.932;2023-07-28T08:54:44;13.20;;;4.80;;
65658;SDS011;60181;53.258;6.932;2023-07-28T08:58:57;13.20;;;4.80;;
65658;SDS011;60181;53.258;6.932;2023-07-28T09:03:04;13.20;;;4.80;;
65658;SDS011;60181;53.258;6.932;2023-07-28T09:07:14;11.50;;;4.50;;
65658;SDS011;60181;53.258;6.932;2023-07-28T09:11:24;11.50;;;4.50;;
65658;SDS011;60181;53.258;6.932;2023-07-28T09:15:34;7.90;;;4.30;;
65658;SDS011;60181;53.258;6.932;2023-07-28T09:19:50;7.90;;;4.30;;
65658;SDS011;60181;53.258;6.932;2023-07-28T09:23:54;7.70;;;4.50;;
65658;SDS011;60181;53.258;6.932;2023-07-28T09:28:04;7.70;;;4.50;;
65658;SDS011;60181;53.258;6.932;2023-07-28T09:32:14;7.70;;;4.50;;
65658;SDS011;60181;53.258;6.932;2023-07-28T09:36:24;9.10;;;4.20;;
65658;SDS011;60181;53.258;6.932;2023-07-28T09:40:34;9.10;;;4.20;;
65658;SDS011;60181;53.258;6.932;2023-07-28T09:44:44;10.50;;;4.30;;
65658;SDS011;60181;53.258;6.932;2023-07-28T09:48:55;10.50;;;4.30;;
65658;SDS011;60181;53.258;6.932;2023-07-28T09:53:04;10.50;;;4.30;;
65658;SDS011;60181;53.258;6.932;2023-07-28T09:57:14;7.30;;;4.40;;
65658;SDS011;60181;53.258;6.932;2023-07-28T10:01:24;7.30;;;4.40;;
65658;SDS011;60181;53.258;6.932;2023-07-28T10:05:34;9.10;;;4.70;;
65658;SDS011;60181;53.258;6.932;2023-07-28T10:09:44;9.10;;;4.70;;
65658;SDS011;60181;53.258;6.932;2023-07-28T10:13:54;8.00;;;4.70;;
65658;SDS011;60181;53.258;6.932;2023-07-28T10:18:04;8.00;;;4.70;;
65658;SDS011;60181;53.258;6.932;2023-07-28T10:22:14;8.00;;;4.70;;
65658;SDS011;60181;53.258;6.932;2023-07-28T10:26:39;8.70;;;5.00;;
65658;SDS011;60181;53.258;6.932;2023-07-28T10:30:34;8.70;;;5.00;;
65658;SDS011;60181;53.258;6.932;2023-07-28T10:34:51;7.40;;;4.70;;
65658;SDS011;60181;53.258;6.932;2023-07-28T10:39:00;7.40;;;4.70;;
65658;SDS011;60181;53.258;6.932;2023-07-28T10:43:04;7.40;;;4.70;;
65658;SDS011;60181;53.258;6.932;2023-07-28T10:47:14;7.50;;;5.00;;
65658;SDS011;60181;53.258;6.932;2023-07-28T10:51:25;7.50;;;5.00;;
65658;SDS011;60181;53.258;6.932;2023-07-28T10:55:34;7.80;;;5.10;;
65658;SDS011;60181;53.258;6.932;2023-07-28T10:59:44;7.80;;;5.10;;
65658;SDS011;60181;53.258;6.932;2023-07-28T11:03:54;9.00;;;5.50;;
65658;SDS011;60181;53.258;6.932;2023-07-28T11:08:05;9.00;;;5.50;;
65658;SDS011;60181;53.258;6.932;2023-07-28T11:12:14;9.00;;;5.50;;
65658;SDS011;60181;53.258;6.932;2023-07-28T11:16:24;11.30;;;6.40;;
65658;SDS011;60181;53.258;6.932;2023-07-28T11:20:34;11.30;;;6.40;;
65658;SDS011;60181;53.258;6.932;2023-07-28T11:24:44;12.70;;;7.00;;
65658;SDS011;60181;53.258;6.932;2023-07-28T11:28:54;12.70;;;7.00;;
65658;SDS011;60181;53.258;6.932;2023-07-28T11:33:04;12.70;;;7.00;;
65658;SDS011;60181;53.258;6.932;2023-07-28T11:37:14;12.10;;;7.40;;
65658;SDS011;60181;53.258;6.932;2023-07-28T11:41:24;12.10;;;7.40;;
65658;SDS011;60181;53.258;6.932;2023-07-28T11:45:34;14.00;;;7.60;;
65658;SDS011;60181;53.258;6.932;2023-07-28T11:49:47;14.00;;;7.60;;
65658;SDS011;60181;53.258;6.932;2023-07-28T11:53:54;13.80;;;7.70;;
65658;SDS011;60181;53.258;6.932;2023-07-28T11:58:07;13.80;;;7.70;;
65658;SDS011;60181;53.258;6.932;2023-07-28T12:02:14;13.80;;;7.70;;
65658;SDS011;60181;53.258;6.932;2023-07-28T12:06:24;13.70;;;7.00;;
65658;SDS011;60181;53.258;6.932;2023-07-28T12:10:34;13.70;;;7.00;;
65658;SDS011;60181;53.258;6.932;2023-07-28T12:14:44;11.80;;;6.70;;
65658;SDS011;60181;53.258;6.932;2023-07-28T12:18:57;11.80;;;6.70;;
65658;SDS011;60181;53.258;6.932;2023-07-28T12:23:04;11.80;;;6.70;;
65658;SDS011;60181;53.258;6.932;2023-07-28T12:27:14;10.60;;;6.40;;
65658;SDS011;60181;53.258;6.932;2023-07-28T12:31:24;10.60;;;6.40;;
65658;SDS011;60181;53.258;6.932;2023-07-28T12:35:34;13.60;;;6.70;;
65658;SDS011;60181;53.258;6.932;2023-07-28T12:39:44;13.60;;;6.70;;
65658;SDS011;60181;53.258;6.932;2023-07-28T12:43:54;13.60;;;6.70;;
65658;SDS011;60181;53.258;6.932;2023-07-28T12:48:04;13.60;;;6.70;;
65658;SDS011;60181;53.258;6.932;2023-07-28T12:52:14;13.60;;;6.70;;
65658;SDS011;60181;53.258;6.932;2023-07-28T12:56:24;11.70;;;6.60;;
65658;SDS011;60181;53.258;6.932;2023-07-28T13:00:34;11.70;;;6.60;;
65658;SDS011;60181;53.258;6.932;2023-07-28T13:04:44;11.10;;;6.40;;
65658;SDS011;60181;53.258;6.932;2023-07-28T13:08:54;11.10;;;6.40;;
65658;SDS011;60181;53.258;6.932;2023-07-28T13:13:04;11.10;;;6.40;;
65658;SDS011;60181;53.258;6.932;2023-07-28T13:17:14;8.80;;;5.80;;
65658;SDS011;60181;53.258;6.932;2023-07-28T13:21:24;8.80;;;5.80;;
65658;SDS011;60181;53.258;6.932;2023-07-28T13:25:34;9.50;;;5.30;;
65658;SDS011;60181;53.258;6.932;2023-07-28T13:29:44;9.50;;;5.30;;
65658;SDS011;60181;53.258;6.932;2023-07-28T13:33:54;7.90;;;4.90;;
65658;SDS011;60181;53.258;6.932;2023-07-28T13:38:03;7.90;;;4.90;;
65658;SDS011;60181;53.258;6.932;2023-07-28T13:42:13;7.90;;;4.90;;
65658;SDS011;60181;53.258;6.932;2023-07-28T13:46:23;9.00;;;4.60;;
65658;SDS011;60181;53.258;6.932;2023-07-28T13:50:33;9.00;;;4.60;;
65658;SDS011;60181;53.258;6.932;2023-07-28T13:54:43;9.50;;;4.60;;
65658;SDS011;60181;53.258;6.932;2023-07-28T13:58:53;9.50;;;4.60;;
65658;SDS011;60181;53.258;6.932;2023-07-28T14:03:03;9.50;;;4.60;;
65658;SDS011;60181;53.258;6.932;2023-07-28T14:07:13;7.10;;;4.30;;
65658;SDS011;60181;53.258;6.932;2023-07-28T14:11:23;7.10;;;4.30;;
65658;SDS011;60181;53.258;6.932;2023-07-28T14:15:33;6.00;;;3.60;;
65658;SDS011;60181;53.258;6.932;2023-07-28T14:19:43;6.00;;;3.60;;
65658;SDS011;60181;53.258;6.932;2023-07-28T14:23:53;5.00;;;3.50;;
65658;SDS011;60181;53.258;6.932;2023-07-28T14:28:03;5.00;;;3.50;;
65658;SDS011;60181;53.258;6.932;2023-07-28T14:32:13;5.00;;;3.50;;
65658;SDS011;60181;53.258;6.932;2023-07-28T14:36:23;7.30;;;3.40;;
65658;SDS011;60181;53.258;6.932;2023-07-28T14:40:33;7.30;;;3.40;;
65658;SDS011;60181;53.258;6.932;2023-07-28T14:44:43;5.60;;;3.30;;
65658;SDS011;60181;53.258;6.932;2023-07-28T14:48:54;5.60;;;3.30;;
65658;SDS011;60181;53.258;6.932;2023-07-28T14:53:10;5.60;;;3.30;;
65658;SDS011;60181;53.258;6.932;2023-07-28T14:57:13;4.80;;;3.20;;
65658;SDS011;60181;53.258;6.932;2023-07-28T15:01:23;4.80;;;3.20;;
65658;SDS011;60181;53.258;6.932;2023-07-28T15:05:33;4.80;;;3.30;;
65658;SDS011;60181;53.258;6.932;2023-07-28T15:09:43;4.80;;;3.30;;
65658;SDS011;60181;53.258;6.932;2023-07-28T15:13:53;6.50;;;3.70;;
65658;SDS011;60181;53.258;6.932;2023-07-28T15:18:03;6.50;;;3.70;;
65658;SDS011;60181;53.258;6.932;2023-07-28T15:22:13;6.50;;;3.70;;
65658;SDS011;60181;53.258;6.932;2023-07-28T15:26:23;6.60;;;3.90;;
65658;SDS011;60181;53.258;6.932;2023-07-28T15:30:33;6.60;;;3.90;;
65658;SDS011;60181;53.258;6.932;2023-07-28T15:34:43;7.20;;;4.70;;
65658;SDS011;60181;53.258;6.932;2023-07-28T15:38:53;7.20;;;4.70;;
65658;SDS011;60181;53.258;6.932;2023-07-28T15:43:03;7.20;;;4.70;;
65658;SDS011;60181;53.258;6.932;2023-07-28T15:47:13;9.10;;;5.10;;
65658;SDS011;60181;53.258;6.932;2023-07-28T15:51:23;9.10;;;5.10;;
65658;SDS011;60181;53.258;6.932;2023-07-28T15:55:33;8.70;;;4.80;;
65658;SDS011;60181;53.258;6.932;2023-07-28T15:59:45;8.70;;;4.80;;
65658;SDS011;60181;53.258;6.932;2023-07-28T16:03:53;7.90;;;4.70;;
65658;SDS011;60181;53.258;6.932;2023-07-28T16:08:05;7.90;;;4.70;;
65658;SDS011;60181;53.258;6.932;2023-07-28T16:12:13;7.90;;;4.70;;
65658;SDS011;60181;53.258;6.932;2023-07-28T16:16:23;9.10;;;4.40;;
65658;SDS011;60181;53.258;6.932;2023-07-28T16:20:33;9.10;;;4.40;;
65658;SDS011;60181;53.258;6.932;2023-07-28T16:24:43;10.40;;;4.50;;
65658;SDS011;60181;53.258;6.932;2023-07-28T16:28:53;10.40;;;4.50;;
65658;SDS011;60181;53.258;6.932;2023-07-28T16:33:03;10.40;;;4.50;;
65658;SDS011;60181;53.258;6.932;2023-07-28T16:37:13;9.20;;;4.50;;
65658;SDS011;60181;53.258;6.932;2023-07-28T16:41:23;9.20;;;4.50;;
65658;SDS011;60181;53.258;6.932;2023-07-28T16:45:33;8.40;;;4.40;;
65658;SDS011;60181;53.258;6.932;2023-07-28T16:49:43;8.40;;;4.40;;
65658;SDS011;60181;53.258;6.932;2023-07-28T16:53:53;8.80;;;4.30;;
65658;SDS011;60181;53.258;6.932;2023-07-28T16:58:03;8.80;;;4.30;;
65658;SDS011;60181;53.258;6.932;2023-07-28T17:02:13;8.80;;;4.30;;
65658;SDS011;60181;53.258;6.932;2023-07-28T17:06:23;8.30;;;4.50;;
65658;SDS011;60181;53.258;6.932;2023-07-28T17:10:33;8.30;;;4.50;;
65658;SDS011;60181;53.258;6.932;2023-07-28T17:14:43;6.90;;;4.80;;
65658;SDS011;60181;53.258;6.932;2023-07-28T17:18:53;6.90;;;4.80;;
65658;SDS011;60181;53.258;6.932;2023-07-28T17:23:03;6.90;;;4.80;;
65658;SDS011;60181;53.258;6.932;2023-07-28T17:27:13;7.30;;;4.50;;
65658;SDS011;60181;53.258;6.932;2023-07-28T17:31:23;7.30;;;4.50;;
65658;SDS011;60181;53.258;6.932;2023-07-28T17:35:33;7.10;;;4.80;;
65658;SDS011;60181;53.258;6.932;2023-07-28T17:39:43;7.10;;;4.80;;
65658;SDS011;60181;53.258;6.932;2023-07-28T17:43:53;6.40;;;4.40;;
65658;SDS011;60181;53.258;6.932;2023-07-28T17:48:04;6.40;;;4.40;;
65658;SDS011;60181;53.258;6.932;2023-07-28T17:52:13;6.40;;;4.40;;
65658;SDS011;60181;53.258;6.932;2023-07-28T17:56:23;8.20;;;4.90;;
65658;SDS011;60181;53.258;6.932;2023-07-28T18:00:33;8.20;;;4.90;;
65658;SDS011;60181;53.258;6.932;2023-07-28T18:04:43;12.70;;;5.40;;
65658;SDS011;60181;53.258;6.932;2023-07-28T18:08:53;12.70;;;5.40;;
65658;SDS011;60181;53.258;6.932;2023-07-28T18:13:03;12.70;;;5.40;;
65658;SDS011;60181;53.258;6.932;2023-07-28T18:17:13;17.00;;;5.60;;
65658;SDS011;60181;53.258;6.932;2023-07-28T18:21:23;17.00;;;5.60;;
65658;SDS011;60181;53.258;6.932;2023-07-28T18:25:33;12.00;;;5.70;;
65658;SDS011;60181;53.258;6.932;2023-07-28T18:29:43;12.00;;;5.70;;
65658;SDS011;60181;53.258;6.932;2023-07-28T18:33:53;11.10;;;5.20;;
65658;SDS011;60181;53.258;6.932;2023-07-28T18:38:03;11.10;;;5.20;;
65658;SDS011;60181;53.258;6.932;2023-07-28T18:42:13;11.10;;;5.20;;
65658;SDS011;60181;53.258;6.932;2023-07-28T18:46:23;10.40;;;5.30;;
65658;SDS011;60181;53.258;6.932;2023-07-28T18:50:33;10.40;;;5.30;;
65658;SDS011;60181;53.258;6.932;2023-07-28T18:54:43;11.30;;;5.50;;
65658;SDS011;60181;53.258;6.932;2023-07-28T18:58:53;11.30;;;5.50;;
65658;SDS011;60181;53.258;6.932;2023-07-28T19:03:03;11.30;;;5.50;;
65658;SDS011;60181;53.258;6.932;2023-07-28T19:07:13;8.60;;;5.30;;
65658;SDS011;60181;53.258;6.932;2023-07-28T19:11:23;8.60;;;5.30;;
65658;SDS011;60181;53.258;6.932;2023-07-28T19:15:33;10.00;;;5.20;;
65658;SDS011;60181;53.258;6.932;2023-07-28T19:19:43;10.00;;;5.20;;
65658;SDS011;60181;53.258;6.932;2023-07-28T19:23:53;15.10;;;5.10;;
65658;SDS011;60181;53.258;6.932;2023-07-28T19:28:03;15.10;;;5.10;;
65658;SDS011;60181;53.258;6.932;2023-07-28T19:32:13;15.10;;;5.10;;
65658;SDS011;60181;53.258;6.932;2023-07-28T19:36:23;13.00;;;5.20;;
65658;SDS011;60181;53.258;6.932;2023-07-28T19:40:33;13.00;;;5.20;;
65658;SDS011;60181;53.258;6.932;2023-07-28T19:44:43;10.40;;;5.10;;
65658;SDS011;60181;53.258;6.932;2023-07-28T19:48:53;10.40;;;5.10;;
65658;SDS011;60181;53.258;6.932;2023-07-28T19:53:03;10.40;;;5.10;;
65658;SDS011;60181;53.258;6.932;2023-07-28T19:57:13;11.60;;;4.80;;
65658;SDS011;60181;53.258;6.932;2023-07-28T20:01:23;11.60;;;4.80;;
65658;SDS011;60181;53.258;6.932;2023-07-28T20:05:33;9.70;;;5.10;;
65658;SDS011;60181;53.258;6.932;2023-07-28T20:09:43;9.70;;;5.10;;
65658;SDS011;60181;53.258;6.932;2023-07-28T20:13:53;9.10;;;5.00;;
65658;SDS011;60181;53.258;6.932;2023-07-28T20:18:03;9.10;;;5.00;;
65658;SDS011;60181;53.258;6.932;2023-07-28T20:22:13;9.10;;;5.00;;
65658;SDS011;60181;53.258;6.932;2023-07-28T20:26:23;8.20;;;4.80;;
65658;SDS011;60181;53.258;6.932;2023-07-28T20:30:33;8.20;;;4.80;;
65658;SDS011;60181;53.258;6.932;2023-07-28T20:34:43;10.90;;;4.80;;
65658;SDS011;60181;53.258;6.932;2023-07-28T20:38:53;10.90;;;4.80;;
65658;SDS011;60181;53.258;6.932;2023-07-28T20:43:03;10.90;;;4.80;;
65658;SDS011;60181;53.258;6.932;2023-07-28T20:47:13;9.10;;;4.90;;
65658;SDS011;60181;53.258;6.932;2023-07-28T20:51:23;9.10;;;4.90;;
65658;SDS011;60181;53.258;6.932;2023-07-28T20:55:33;7.70;;;4.90;;
65658;SDS011;60181;53.258;6.932;2023-07-28T20:59:43;7.70;;;4.90;;
65658;SDS011;60181;53.258;6.932;2023-07-28T21:03:53;9.80;;;5.20;;
65658;SDS011;60181;53.258;6.932;2023-07-28T21:08:03;9.80;;;5.20;;
65658;SDS011;60181;53.258;6.932;2023-07-28T21:12:13;9.80;;;5.20;;
65658;SDS011;60181;53.258;6.932;2023-07-28T21:16:23;9.30;;;5.20;;
65658;SDS011;60181;53.258;6.932;2023-07-28T21:20:33;9.30;;;5.20;;
65658;SDS011;60181;53.258;6.932;2023-07-28T21:24:43;8.70;;;5.00;;
65658;SDS011;60181;53.258;6.932;2023-07-28T21:28:53;8.70;;;5.00;;
65658;SDS011;60181;53.258;6.932;2023-07-28T21:33:04;8.70;;;5.00;;
65658;SDS011;60181;53.258;6.932;2023-07-28T21:37:13;8.50;;;5.50;;
65658;SDS011;60181;53.258;6.932;2023-07-28T21:41:23;8.50;;;5.50;;
65658;SDS011;60181;53.258;6.932;2023-07-28T21:45:33;8.90;;;5.20;;
65658;SDS011;60181;53.258;6.932;2023-07-28T21:49:43;8.90;;;5.20;;
65658;SDS011;60181;53.258;6.932;2023-07-28T21:53:53;7.80;;;5.30;;
65658;SDS011;60181;53.258;6.932;2023-07-28T21:58:03;7.80;;;5.30;;
65658;SDS011;60181;53.258;6.932;2023-07-28T22:02:13;7.80;;;5.30;;
65658;SDS011;60181;53.258;6.932;2023-07-28T22:06:23;11.10;;;5.60;;
65658;SDS011;60181;53.258;6.932;2023-07-28T22:10:33;11.10;;;5.60;;
65658;SDS011;60181;53.258;6.932;2023-07-28T22:14:43;19.00;;;6.40;;
65658;SDS011;60181;53.258;6.932;2023-07-28T22:18:53;19.00;;;6.40;;
65658;SDS011;60181;53.258;6.932;2023-07-28T22:23:03;19.00;;;6.40;;
65658;SDS011;60181;53.258;6.932;2023-07-28T22:27:13;18.50;;;6.00;;
65658;SDS011;60181;53.258;6.932;2023-07-28T22:31:23;18.50;;;6.00;;
65658;SDS011;60181;53.258;6.932;2023-07-28T22:35:33;15.10;;;6.30;;
65658;SDS011;60181;53.258;6.932;2023-07-28T22:39:43;15.10;;;6.30;;
65658;SDS011;60181;53.258;6.932;2023-07-28T22:43:53;15.00;;;6.00;;
65658;SDS011;60181;53.258;6.932;2023-07-28T22:48:03;15.00;;;6.00;;
65658;SDS011;60181;53.258;6.932;2023-07-28T22:52:13;15.00;;;6.00;;
65658;SDS011;60181;53.258;6.932;2023-07-28T22:56:23;16.20;;;7.10;;
65658;SDS011;60181;53.258;6.932;2023-07-28T23:00:33;16.20;;;7.10;;
65658;SDS011;60181;53.258;6.932;2023-07-28T23:04:43;15.00;;;6.50;;
65658;SDS011;60181;53.258;6.932;2023-07-28T23:08:53;15.00;;;6.50;;
65658;SDS011;60181;53.258;6.932;2023-07-28T23:13:03;15.00;;;6.50;;
65658;SDS011;60181;53.258;6.932;2023-07-28T23:17:13;17.70;;;7.30;;
65658;SDS011;60181;53.258;6.932;2023-07-28T23:21:23;17.70;;;7.30;;
65658;SDS011;60181;53.258;6.932;2023-07-28T23:25:33;15.80;;;8.00;;
65658;SDS011;60181;53.258;6.932;2023-07-28T23:29:43;15.80;;;8.00;;
65658;SDS011;60181;53.258;6.932;2023-07-28T23:33:53;16.70;;;8.00;;
65658;SDS011;60181;53.258;6.932;2023-07-28T23:38:03;16.70;;;8.00;;
65658;SDS011;60181;53.258;6.932;2023-07-28T23:42:13;16.70;;;8.00;;
65658;SDS011;60181;53.258;6.932;2023-07-28T23:46:23;17.10;;;8.10;;
65658;SDS011;60181;53.258;6.932;2023-07-28T23:50:33;17.10;;;8.10;;
65658;SDS011;60181;53.258;6.932;2023-07-28T23:54:43;16.20;;;8.20;;
65658;SDS011;60181;53.258;6.932;2023-07-28T23:58:53;16.20;;;8.20;;
